sensor_id;sensor_type;location;lat;lon;timestamp;pressure;altitude;pressure_sealevel;temperature;humidity
25610;BME280;13479;49.044;8.716;2022-10-30T05:01:24;99409.00;;;13.20;97.03
25610;BME280;13479;49.044;8.716;2022-10-30T05:03:49;99415.59;;;13.16;97.07
25610;BME280;13479;49.044;8.716;2022-10-30T05:06:22;99416.72;;;13.13;96.81
25610;BME280;13479;49.044;8.716;2022-10-30T05:08:49;99418.00;;;13.19;96.21
25610;BME280;13479;49.044;8.716;2022-10-30T05:11:15;99416.56;;;13.15;96.10
25610;BME280;13479;49.044;8.716;2022-10-30T05:13:40;99402.53;;;12.93;97.03
25610;BME280;13479;49.044;8.716;2022-10-30T05:16:05;99391.72;;;12.85;97.59
25610;BME280;13479;49.044;8.716;2022-10-30T05:18:31;99398.16;;;12.73;97.95
25610;BME280;13479;49.044;8.716;2022-10-30T05:20:56;99403.59;;;12.61;98.48
25610;BME280;13479;49.044;8.716;2022-10-30T05:23:21;99399.91;;;12.52;99.18
25610;BME280;13479;49.044;8.716;2022-10-30T05:25:47;99405.53;;;12.59;98.46
25610;BME280;13479;49.044;8.716;2022-10-30T05:28:12;99422.78;;;12.55;97.56
25610;BME280;13479;49.044;8.716;2022-10-30T05:30:37;99427.09;;;12.56;97.61
25610;BME280;13479;49.044;8.716;2022-10-30T05:33:05;99427.09;;;12.56;97.57
25610;BME280;13479;49.044;8.716;2022-10-30T05:35:32;99427.41;;;12.63;97.36
25610;BME280;13479;49.044;8.716;2022-10-30T05:37:59;99417.34;;;12.66;97.66
25610;BME280;13479;49.044;8.716;2022-10-30T05:40:24;99406.97;;;12.63;97.87
25610;BME280;13479;49.044;8.716;2022-10-30T05:42:50;99419.44;;;12.73;97.81
25610;BME280;13479;49.044;8.716;2022-10-30T05:45:16;99409.06;;;12.60;97.93
25610;BME280;13479;49.044;8.716;2022-10-30T05:47:42;99406.09;;;12.53;98.13
25610;BME280;13479;49.044;8.716;2022-10-30T05:50:08;99404.94;;;12.46;98.27
25610;BME280;13479;49.044;8.716;2022-10-30T05:52:33;99400.16;;;12.40;98.28
25610;BME280;13479;49.044;8.716;2022-10-30T05:54:59;99410.25;;;12.46;98.21
25610;BME280;13479;49.044;8.716;2022-10-30T05:57:28;99420.06;;;12.45;97.76
25610;BME280;13479;49.044;8.716;2022-10-30T05:59:54;99428.47;;;12.41;97.54
25610;BME280;13479;49.044;8.716;2022-10-30T06:02:19;99423.56;;;12.36;97.24
25610;BME280;13479;49.044;8.716;2022-10-30T06:04:45;99435.16;;;12.35;97.47
25610;BME280;13479;49.044;8.716;2022-10-30T06:07:10;99430.97;;;12.32;97.06
25610;BME280;13479;49.044;8.716;2022-10-30T06:09:36;99436.81;;;12.26;97.36
25610;BME280;13479;49.044;8.716;2022-10-30T06:12:01;99432.84;;;12.20;97.29
25610;BME280;13479;49.044;8.716;2022-10-30T06:14:27;99430.34;;;12.19;97.37
25610;BME280;13479;49.044;8.716;2022-10-30T06:16:52;99419.94;;;12.16;97.64
25610;BME280;13479;49.044;8.716;2022-10-30T06:19:17;99417.03;;;12.19;98.09
25610;BME280;13479;49.044;8.716;2022-10-30T06:21:42;99418.56;;;12.22;98.46
25610;BME280;13479;49.044;8.716;2022-10-30T06:24:08;99424.03;;;12.20;98.91
25610;BME280;13479;49.044;8.716;2022-10-30T06:26:33;99429.78;;;12.25;99.08
25610;BME280;13479;49.044;8.716;2022-10-30T06:28:58;99431.22;;;12.29;99.79
25610;BME280;13479;49.044;8.716;2022-10-30T06:31:24;99440.81;;;12.42;99.59
25610;BME280;13479;49.044;8.716;2022-10-30T06:33:49;99447.00;;;12.52;99.23
25610;BME280;13479;49.044;8.716;2022-10-30T06:36:14;99451.78;;;12.58;98.90
25610;BME280;13479;49.044;8.716;2022-10-30T06:38:41;99459.66;;;12.60;98.83
25610;BME280;13479;49.044;8.716;2022-10-30T06:41:06;99459.41;;;12.73;98.77
25610;BME280;13479;49.044;8.716;2022-10-30T06:43:32;99469.97;;;12.84;99.00
25610;BME280;13479;49.044;8.716;2022-10-30T06:45:57;99464.78;;;12.92;98.92
25610;BME280;13479;49.044;8.716;2022-10-30T06:48:22;99470.16;;;13.12;98.45
25610;BME280;13479;49.044;8.716;2022-10-30T06:50:56;99468.25;;;13.34;98.44
25610;BME280;13479;49.044;8.716;2022-10-30T06:53:22;99474.44;;;13.54;97.94
25610;BME280;13479;49.044;8.716;2022-10-30T06:55:58;99482.84;;;13.79;96.89
25610;BME280;13479;49.044;8.716;2022-10-30T06:58:23;99470.34;;;13.99;96.11
25610;BME280;13479;49.044;8.716;2022-10-30T07:00:49;99461.13;;;14.21;94.23
25610;BME280;13479;49.044;8.716;2022-10-30T07:03:15;99438.03;;;14.40;93.02
25610;BME280;13479;49.044;8.716;2022-10-30T07:05:40;99434.19;;;14.52;91.79
25610;BME280;13479;49.044;8.716;2022-10-30T07:08:05;99402.56;;;14.47;91.85
25610;BME280;13479;49.044;8.716;2022-10-30T07:10:31;99415.69;;;14.69;91.34
25610;BME280;13479;49.044;8.716;2022-10-30T07:12:56;99415.66;;;14.78;90.88
25610;BME280;13479;49.044;8.716;2022-10-30T07:15:23;99412.44;;;14.93;90.59
25610;BME280;13479;49.044;8.716;2022-10-30T07:17:59;99408.28;;;15.08;89.09
25610;BME280;13479;49.044;8.716;2022-10-30T07:20:27;99413.97;;;15.50;86.89
25610;BME280;13479;49.044;8.716;2022-10-30T07:22:52;99393.03;;;16.16;84.75
25610;BME280;13479;49.044;8.716;2022-10-30T07:25:18;99384.53;;;17.31;82.51
25610;BME280;13479;49.044;8.716;2022-10-30T07:27:44;99374.22;;;18.57;76.25
25610;BME280;13479;49.044;8.716;2022-10-30T07:30:12;99340.53;;;19.39;72.92
25610;BME280;13479;49.044;8.716;2022-10-30T07:32:38;99321.59;;;19.86;67.74
25610;BME280;13479;49.044;8.716;2022-10-30T07:35:03;99298.88;;;20.25;62.09
25610;BME280;13479;49.044;8.716;2022-10-30T07:37:29;99271.59;;;20.72;61.70
25610;BME280;13479;49.044;8.716;2022-10-30T07:39:54;99284.44;;;21.13;58.16
25610;BME280;13479;49.044;8.716;2022-10-30T07:42:19;99274.25;;;21.37;56.93
25610;BME280;13479;49.044;8.716;2022-10-30T07:44:45;99283.28;;;21.79;56.25
25610;BME280;13479;49.044;8.716;2022-10-30T07:47:10;99299.88;;;22.11;55.08
25610;BME280;13479;49.044;8.716;2022-10-30T07:49:35;99301.66;;;22.39;53.66
25610;BME280;13479;49.044;8.716;2022-10-30T07:52:00;99305.69;;;22.57;53.10
25610;BME280;13479;49.044;8.716;2022-10-30T07:54:26;99311.97;;;22.71;52.21
25610;BME280;13479;49.044;8.716;2022-10-30T07:56:51;99302.69;;;22.38;52.74
25610;BME280;13479;49.044;8.716;2022-10-30T07:59:16;99281.66;;;21.85;54.41
25610;BME280;13479;49.044;8.716;2022-10-30T08:01:41;99226.25;;;21.60;55.62
25610;BME280;13479;49.044;8.716;2022-10-30T08:04:07;99200.22;;;21.24;56.18
25610;BME280;13479;49.044;8.716;2022-10-30T08:06:35;99190.44;;;20.88;57.18
25610;BME280;13479;49.044;8.716;2022-10-30T08:09:00;99172.56;;;20.44;59.47
25610;BME280;13479;49.044;8.716;2022-10-30T08:11:25;99174.22;;;20.45;59.52
25610;BME280;13479;49.044;8.716;2022-10-30T08:13:51;99196.72;;;20.52;58.33
25610;BME280;13479;49.044;8.716;2022-10-30T08:16:16;99187.09;;;20.43;59.83
25610;BME280;13479;49.044;8.716;2022-10-30T08:18:42;99196.53;;;20.75;59.66
25610;BME280;13479;49.044;8.716;2022-10-30T08:21:08;99248.19;;;21.22;57.67
25610;BME280;13479;49.044;8.716;2022-10-30T08:23:33;99318.91;;;21.96;55.92
25610;BME280;13479;49.044;8.716;2022-10-30T08:25:58;99343.72;;;23.37;51.72
25610;BME280;13479;49.044;8.716;2022-10-30T08:28:26;99357.63;;;25.06;47.89
25610;BME280;13479;49.044;8.716;2022-10-30T08:30:51;99391.13;;;26.63;43.79
25610;BME280;13479;49.044;8.716;2022-10-30T08:33:17;99419.47;;;28.01;40.54
25610;BME280;13479;49.044;8.716;2022-10-30T08:35:46;99426.75;;;28.84;38.26
25610;BME280;13479;49.044;8.716;2022-10-30T08:38:12;99423.63;;;28.40;37.98
25610;BME280;13479;49.044;8.716;2022-10-30T08:40:38;99419.25;;;28.27;37.83
25610;BME280;13479;49.044;8.716;2022-10-30T08:43:03;99423.41;;;28.05;38.68
25610;BME280;13479;49.044;8.716;2022-10-30T08:45:28;99431.00;;;27.37;38.82
25610;BME280;13479;49.044;8.716;2022-10-30T08:47:58;99421.94;;;27.67;39.28
25610;BME280;13479;49.044;8.716;2022-10-30T08:50:24;99420.81;;;28.23;38.46
25610;BME280;13479;49.044;8.716;2022-10-30T08:52:49;99428.78;;;28.77;37.06
25610;BME280;13479;49.044;8.716;2022-10-30T08:55:15;99430.13;;;29.83;36.47
25610;BME280;13479;49.044;8.716;2022-10-30T08:57:40;99431.84;;;30.63;34.67
25610;BME280;13479;49.044;8.716;2022-10-30T09:00:06;99443.28;;;31.04;33.98
25610;BME280;13479;49.044;8.716;2022-10-30T09:02:32;99449.31;;;31.29;33.09
25610;BME280;13479;49.044;8.716;2022-10-30T09:04:57;99456.44;;;31.57;32.71
25610;BME280;13479;49.044;8.716;2022-10-30T09:07:22;99460.69;;;32.08;32.28
25610;BME280;13479;49.044;8.716;2022-10-30T09:09:47;99461.84;;;32.60;31.88
25610;BME280;13479;49.044;8.716;2022-10-30T09:12:13;99459.56;;;33.10;31.50
25610;BME280;13479;49.044;8.716;2022-10-30T09:14:38;99476.44;;;34.07;30.60
25610;BME280;13479;49.044;8.716;2022-10-30T09:17:03;99473.53;;;34.69;28.83
25610;BME280;13479;49.044;8.716;2022-10-30T09:19:28;99476.25;;;35.34;28.34
25610;BME280;13479;49.044;8.716;2022-10-30T09:21:54;99480.44;;;35.71;27.74
25610;BME280;13479;49.044;8.716;2022-10-30T09:24:19;99491.00;;;36.53;27.04
25610;BME280;13479;49.044;8.716;2022-10-30T09:26:44;99487.19;;;37.35;25.19
25610;BME280;13479;49.044;8.716;2022-10-30T09:29:10;99482.13;;;38.09;24.69
25610;BME280;13479;49.044;8.716;2022-10-30T09:31:35;99488.34;;;38.47;24.18
25610;BME280;13479;49.044;8.716;2022-10-30T09:34:00;99496.16;;;38.87;23.14
25610;BME280;13479;49.044;8.716;2022-10-30T09:36:25;99503.16;;;38.71;23.70
25610;BME280;13479;49.044;8.716;2022-10-30T09:38:50;99513.66;;;38.88;23.34
25610;BME280;13479;49.044;8.716;2022-10-30T09:49:31;99510.81;;;39.16;22.46
25610;BME280;13479;49.044;8.716;2022-10-30T09:52:25;99498.75;;;38.56;22.91
25610;BME280;13479;49.044;8.716;2022-10-30T09:57:58;99497.19;;;38.36;23.37
25610;BME280;13479;49.044;8.716;2022-10-30T10:00:33;99491.84;;;38.67;23.54
25610;BME280;13479;49.044;8.716;2022-10-30T10:03:32;99493.19;;;38.84;22.25
25610;BME280;13479;49.044;8.716;2022-10-30T10:06:01;99486.50;;;38.71;22.83
25610;BME280;13479;49.044;8.716;2022-10-30T10:08:36;99481.75;;;38.71;22.34
25610;BME280;13479;49.044;8.716;2022-10-30T10:11:09;99498.84;;;38.78;22.37
25610;BME280;13479;49.044;8.716;2022-10-30T10:13:47;99493.19;;;38.84;22.99
25610;BME280;13479;49.044;8.716;2022-10-30T10:16:20;99484.66;;;38.52;22.63
25610;BME280;13479;49.044;8.716;2022-10-30T10:19:09;99489.72;;;38.03;23.34
25610;BME280;13479;49.044;8.716;2022-10-30T10:21:44;99475.78;;;37.75;23.64
25610;BME280;13479;49.044;8.716;2022-10-30T10:24:20;99481.56;;;37.21;23.59
25610;BME280;13479;49.044;8.716;2022-10-30T10:26:48;99476.16;;;36.68;24.54
25610;BME280;13479;49.044;8.716;2022-10-30T10:29:55;99463.75;;;36.65;25.16
25610;BME280;13479;49.044;8.716;2022-10-30T10:38:08;99431.22;;;34.99;26.55
25610;BME280;13479;49.044;8.716;2022-10-30T10:41:15;99419.72;;;34.82;26.84
25610;BME280;13479;49.044;8.716;2022-10-30T10:43:58;99412.50;;;34.86;26.93
25610;BME280;13479;49.044;8.716;2022-10-30T10:49:21;99404.19;;;35.01;25.86
25610;BME280;13479;49.044;8.716;2022-10-30T10:51:57;99406.94;;;35.01;25.91
25610;BME280;13479;49.044;8.716;2022-10-30T10:54:32;99408.66;;;34.92;25.62
25610;BME280;13479;49.044;8.716;2022-10-30T10:57:02;99415.81;;;34.88;25.41
25610;BME280;13479;49.044;8.716;2022-10-30T10:59:33;99408.94;;;34.85;25.25
25610;BME280;13479;49.044;8.716;2022-10-30T11:04:45;99415.28;;;34.20;26.07
25610;BME280;13479;49.044;8.716;2022-10-30T11:07:24;99408.16;;;33.67;26.13
25610;BME280;13479;49.044;8.716;2022-10-30T11:09:52;99391.63;;;33.10;26.68
25610;BME280;13479;49.044;8.716;2022-10-30T11:12:25;99387.44;;;32.24;27.98
25610;BME280;13479;49.044;8.716;2022-10-30T11:14:51;99377.75;;;31.30;29.80
25610;BME280;13479;49.044;8.716;2022-10-30T11:19:50;99378.06;;;29.78;33.21
25610;BME280;13479;49.044;8.716;2022-10-30T11:22:38;99376.22;;;29.16;34.40
25610;BME280;13479;49.044;8.716;2022-10-30T11:25:33;99372.25;;;28.65;36.26
25610;BME280;13479;49.044;8.716;2022-10-30T11:28:01;99369.88;;;28.04;37.11
25610;BME280;13479;49.044;8.716;2022-10-30T11:30:28;99356.78;;;27.35;38.37
25610;BME280;13479;49.044;8.716;2022-10-30T11:32:57;99365.88;;;27.05;40.17
25610;BME280;13479;49.044;8.716;2022-10-30T11:35:23;99366.06;;;26.92;40.45
25610;BME280;13479;49.044;8.716;2022-10-30T11:38:12;99360.28;;;26.51;41.52
25610;BME280;13479;49.044;8.716;2022-10-30T11:40:38;99357.81;;;26.12;43.04
25610;BME280;13479;49.044;8.716;2022-10-30T11:43:06;99351.72;;;25.92;44.23
25610;BME280;13479;49.044;8.716;2022-10-30T11:45:36;99344.00;;;25.88;43.80
25610;BME280;13479;49.044;8.716;2022-10-30T11:48:08;99339.75;;;25.74;44.65
25610;BME280;13479;49.044;8.716;2022-10-30T11:50:35;99332.75;;;25.66;45.65
25610;BME280;13479;49.044;8.716;2022-10-30T11:53:02;99319.03;;;25.54;45.32
25610;BME280;13479;49.044;8.716;2022-10-30T11:55:40;99310.38;;;25.39;45.56
25610;BME280;13479;49.044;8.716;2022-10-30T11:58:21;99306.31;;;25.23;45.87
25610;BME280;13479;49.044;8.716;2022-10-30T12:01:02;99306.31;;;25.23;45.41
25610;BME280;13479;49.044;8.716;2022-10-30T12:03:33;99296.78;;;25.13;46.26
25610;BME280;13479;49.044;8.716;2022-10-30T12:08:39;99285.53;;;25.10;46.73
25610;BME280;13479;49.044;8.716;2022-10-30T12:11:05;99276.22;;;25.24;46.04
25610;BME280;13479;49.044;8.716;2022-10-30T12:13:35;99275.16;;;25.25;46.47
25610;BME280;13479;49.044;8.716;2022-10-30T12:16:17;99272.00;;;25.28;46.63
25610;BME280;13479;49.044;8.716;2022-10-30T12:18:51;99272.44;;;25.51;45.71
25610;BME280;13479;49.044;8.716;2022-10-30T12:21:19;99280.22;;;25.47;45.40
25610;BME280;13479;49.044;8.716;2022-10-30T12:23:50;99282.09;;;25.47;45.36
25610;BME280;13479;49.044;8.716;2022-10-30T12:26:19;99272.22;;;25.52;45.81
25610;BME280;13479;49.044;8.716;2022-10-30T12:29:00;99274.56;;;25.67;45.49
25610;BME280;13479;49.044;8.716;2022-10-30T12:36:51;99263.78;;;25.79;45.43
25610;BME280;13479;49.044;8.716;2022-10-30T12:42:14;99273.00;;;25.97;45.03
25610;BME280;13479;49.044;8.716;2022-10-30T12:44:45;99281.47;;;25.88;45.11
25610;BME280;13479;49.044;8.716;2022-10-30T12:47:19;99283.56;;;25.86;45.41
25610;BME280;13479;49.044;8.716;2022-10-30T12:49:59;99266.00;;;25.89;45.48
25610;BME280;13479;49.044;8.716;2022-10-30T12:52:36;99265.31;;;25.94;45.87
25610;BME280;13479;49.044;8.716;2022-10-30T12:55:07;99253.22;;;25.89;47.26
25610;BME280;13479;49.044;8.716;2022-10-30T12:57:46;99259.84;;;25.75;47.76
25610;BME280;13479;49.044;8.716;2022-10-30T13:00:15;99246.25;;;25.75;48.22
25610;BME280;13479;49.044;8.716;2022-10-30T13:03:13;99238.25;;;25.62;48.32
25610;BME280;13479;49.044;8.716;2022-10-30T13:05:47;99242.13;;;25.54;48.74
25610;BME280;13479;49.044;8.716;2022-10-30T13:10:57;99241.13;;;25.48;49.95
25610;BME280;13479;49.044;8.716;2022-10-30T13:13:31;99232.38;;;25.46;50.07
25610;BME280;13479;49.044;8.716;2022-10-30T13:16:02;99224.22;;;25.46;49.95
25610;BME280;13479;49.044;8.716;2022-10-30T13:18:30;99222.09;;;25.48;50.25
25610;BME280;13479;49.044;8.716;2022-10-30T13:24:10;99224.66;;;25.43;50.23
25610;BME280;13479;49.044;8.716;2022-10-30T13:30:03;99237.34;;;25.49;49.39
25610;BME280;13479;49.044;8.716;2022-10-30T13:38:18;99236.38;;;25.43;50.05
25610;BME280;13479;49.044;8.716;2022-10-30T13:40:54;99219.94;;;25.32;50.56
25610;BME280;13479;49.044;8.716;2022-10-30T13:46:16;99220.72;;;25.13;52.01
25610;BME280;13479;49.044;8.716;2022-10-30T13:48:57;99233.16;;;25.03;52.73
25610;BME280;13479;49.044;8.716;2022-10-30T13:51:34;99228.50;;;24.85;53.34
25610;BME280;13479;49.044;8.716;2022-10-30T13:54:15;99228.38;;;24.73;53.83
25610;BME280;13479;49.044;8.716;2022-10-30T13:56:44;99229.03;;;24.61;54.08
25610;BME280;13479;49.044;8.716;2022-10-30T13:59:42;99226.38;;;24.55;54.04
25610;BME280;13479;49.044;8.716;2022-10-30T14:05:29;99226.16;;;24.24;54.94
25610;BME280;13479;49.044;8.716;2022-10-30T14:10:51;99229.72;;;24.18;55.60
25610;BME280;13479;49.044;8.716;2022-10-30T14:13:28;99219.53;;;24.13;55.67
25610;BME280;13479;49.044;8.716;2022-10-30T14:16:31;99225.16;;;24.12;55.57
25610;BME280;13479;49.044;8.716;2022-10-30T14:19:02;99218.69;;;24.13;55.85
25610;BME280;13479;49.044;8.716;2022-10-30T14:26:50;99211.97;;;24.22;56.19
25610;BME280;13479;49.044;8.716;2022-10-30T14:31:57;99213.38;;;24.31;56.23
25610;BME280;13479;49.044;8.716;2022-10-30T14:34:43;99224.28;;;24.18;56.54
25610;BME280;13479;49.044;8.716;2022-10-30T14:37:09;99218.06;;;24.11;57.70
25610;BME280;13479;49.044;8.716;2022-10-30T14:42:20;99233.97;;;24.00;58.29
25610;BME280;13479;49.044;8.716;2022-10-30T14:50:15;99225.75;;;23.55;59.62
25610;BME280;13479;49.044;8.716;2022-10-30T14:55:27;99242.47;;;23.32;60.74
25610;BME280;13479;49.044;8.716;2022-10-30T15:02:57;99244.97;;;23.06;62.43
25610;BME280;13479;49.044;8.716;2022-10-30T15:05:40;99241.63;;;22.97;62.10
25610;BME280;13479;49.044;8.716;2022-10-30T15:08:40;99240.38;;;22.87;63.14
25610;BME280;13479;49.044;8.716;2022-10-30T15:11:29;99244.53;;;22.76;63.86
25610;BME280;13479;49.044;8.716;2022-10-30T15:14:03;99241.00;;;22.75;64.36
25610;BME280;13479;49.044;8.716;2022-10-30T15:16:32;99242.66;;;22.70;65.00
25610;BME280;13479;49.044;8.716;2022-10-30T15:19:04;99247.41;;;22.61;65.55
25610;BME280;13479;49.044;8.716;2022-10-30T15:21:42;99248.66;;;22.51;66.13
25610;BME280;13479;49.044;8.716;2022-10-30T15:24:16;99249.88;;;22.42;66.53
25610;BME280;13479;49.044;8.716;2022-10-30T15:26:46;99244.63;;;22.34;67.09
25610;BME280;13479;49.044;8.716;2022-10-30T15:29:17;99255.19;;;22.22;67.41
25610;BME280;13479;49.044;8.716;2022-10-30T15:31:43;99248.28;;;22.06;67.91
25610;BME280;13479;49.044;8.716;2022-10-30T15:34:21;99247.44;;;21.99;68.01
25610;BME280;13479;49.044;8.716;2022-10-30T15:36:47;99242.16;;;21.84;68.59
25610;BME280;13479;49.044;8.716;2022-10-30T15:39:14;99248.72;;;21.68;69.07
25610;BME280;13479;49.044;8.716;2022-10-30T15:44:19;99259.22;;;21.56;69.53
25610;BME280;13479;49.044;8.716;2022-10-30T15:46:47;99256.03;;;21.45;70.42
25610;BME280;13479;49.044;8.716;2022-10-30T15:49:14;99257.34;;;21.28;71.59
25610;BME280;13479;49.044;8.716;2022-10-30T15:51:44;99271.22;;;21.18;72.62
25610;BME280;13479;49.044;8.716;2022-10-30T15:54:12;99273.94;;;20.96;73.51
25610;BME280;13479;49.044;8.716;2022-10-30T15:56:42;99280.09;;;20.90;74.42
25610;BME280;13479;49.044;8.716;2022-10-30T15:59:18;99283.31;;;20.79;75.37
25610;BME280;13479;49.044;8.716;2022-10-30T16:01:44;99286.88;;;20.64;76.28
25610;BME280;13479;49.044;8.716;2022-10-30T16:04:18;99290.09;;;20.53;77.13
25610;BME280;13479;49.044;8.716;2022-10-30T16:06:55;99298.19;;;20.38;78.01
25610;BME280;13479;49.044;8.716;2022-10-30T16:09:22;99291.38;;;20.20;78.91
25610;BME280;13479;49.044;8.716;2022-10-30T16:11:49;99301.25;;;19.98;79.47
25610;BME280;13479;49.044;8.716;2022-10-30T16:14:24;99300.38;;;19.83;79.75
25610;BME280;13479;49.044;8.716;2022-10-30T16:16:51;99304.09;;;19.82;80.34
25610;BME280;13479;49.044;8.716;2022-10-30T16:19:25;99306.88;;;19.73;80.51
25610;BME280;13479;49.044;8.716;2022-10-30T16:21:52;99305.47;;;19.63;81.55
25610;BME280;13479;49.044;8.716;2022-10-30T16:24:20;99302.41;;;19.51;81.84
25610;BME280;13479;49.044;8.716;2022-10-30T16:27:04;99319.66;;;19.41;82.38
25610;BME280;13479;49.044;8.716;2022-10-30T16:29:31;99312.31;;;19.35;82.46
25610;BME280;13479;49.044;8.716;2022-10-30T16:31:58;99309.59;;;19.35;82.99
25610;BME280;13479;49.044;8.716;2022-10-30T16:34:29;99318.03;;;19.32;82.36
25610;BME280;13479;49.044;8.716;2022-10-30T16:36:56;99299.34;;;19.16;82.83
25610;BME280;13479;49.044;8.716;2022-10-30T16:39:23;99306.19;;;19.03;83.34
25610;BME280;13479;49.044;8.716;2022-10-30T16:41:49;99307.28;;;18.94;83.73
25610;BME280;13479;49.044;8.716;2022-10-30T16:44:18;99303.28;;;18.81;84.28
25610;BME280;13479;49.044;8.716;2022-10-30T16:46:50;99312.84;;;18.61;85.07
25610;BME280;13479;49.044;8.716;2022-10-30T16:49:20;99314.78;;;18.44;85.40
25610;BME280;13479;49.044;8.716;2022-10-30T16:51:52;99320.84;;;18.37;85.83
25610;BME280;13479;49.044;8.716;2022-10-30T16:54:22;99327.63;;;18.33;86.07
25610;BME280;13479;49.044;8.716;2022-10-30T16:56:50;99334.00;;;18.24;86.69
25610;BME280;13479;49.044;8.716;2022-10-30T16:59:31;99340.91;;;18.18;86.54
25610;BME280;13479;49.044;8.716;2022-10-30T17:01:59;99345.81;;;18.15;87.05
25610;BME280;13479;49.044;8.716;2022-10-30T17:04:31;99338.44;;;18.09;87.51
25610;BME280;13479;49.044;8.716;2022-10-30T17:07:05;99346.03;;;18.05;87.89
25610;BME280;13479;49.044;8.716;2022-10-30T17:09:35;99352.25;;;17.97;88.08
25610;BME280;13479;49.044;8.716;2022-10-30T17:14:40;99355.78;;;17.81;89.15
25610;BME280;13479;49.044;8.716;2022-10-30T17:17:31;99368.72;;;17.78;89.86
25610;BME280;13479;49.044;8.716;2022-10-30T17:20:11;99375.75;;;17.87;90.99
25610;BME280;13479;49.044;8.716;2022-10-30T17:22:36;99384.63;;;17.87;92.42
25610;BME280;13479;49.044;8.716;2022-10-30T17:25:14;99396.22;;;17.80;93.63
25610;BME280;13479;49.044;8.716;2022-10-30T17:27:44;99405.44;;;17.85;94.75
25610;BME280;13479;49.044;8.716;2022-10-30T17:32:59;99410.81;;;17.85;95.42
25610;BME280;13479;49.044;8.716;2022-10-30T17:35:25;99401.59;;;17.80;95.98
25610;BME280;13479;49.044;8.716;2022-10-30T17:37:51;99413.19;;;17.80;95.88
25610;BME280;13479;49.044;8.716;2022-10-30T17:40:16;99408.47;;;17.74;96.03
25610;BME280;13479;49.044;8.716;2022-10-30T17:42:43;99413.84;;;17.74;95.58
25610;BME280;13479;49.044;8.716;2022-10-30T17:45:12;99418.72;;;17.70;95.20
25610;BME280;13479;49.044;8.716;2022-10-30T17:47:37;99411.84;;;17.68;95.35
25610;BME280;13479;49.044;8.716;2022-10-30T17:50:03;99411.69;;;17.69;95.50
25610;BME280;13479;49.044;8.716;2022-10-30T17:52:30;99401.31;;;17.66;95.73
25610;BME280;13479;49.044;8.716;2022-10-30T17:54:55;99404.16;;;17.56;96.11
25610;BME280;13479;49.044;8.716;2022-10-30T17:57:21;99403.97;;;17.41;96.45
25610;BME280;13479;49.044;8.716;2022-10-30T17:59:49;99414.03;;;17.31;97.14
25610;BME280;13479;49.044;8.716;2022-10-30T18:02:17;99414.50;;;17.18;97.53
25610;BME280;13479;49.044;8.716;2022-10-30T18:04:43;99424.59;;;17.16;98.15
25610;BME280;13479;49.044;8.716;2022-10-30T18:07:09;99431.59;;;17.09;98.06
25610;BME280;13479;49.044;8.716;2022-10-30T18:09:34;99432.38;;;16.93;98.52
25610;BME280;13479;49.044;8.716;2022-10-30T18:12:00;99432.16;;;16.78;98.81
25610;BME280;13479;49.044;8.716;2022-10-30T18:14:25;99455.13;;;16.80;98.34
25610;BME280;13479;49.044;8.716;2022-10-30T18:16:51;99450.56;;;16.73;97.86
25610;BME280;13479;49.044;8.716;2022-10-30T18:19:16;99455.28;;;16.71;97.81
25610;BME280;13479;49.044;8.716;2022-10-30T18:21:41;99468.97;;;16.59;97.68
25610;BME280;13479;49.044;8.716;2022-10-30T18:24:13;99477.31;;;16.56;97.61
25610;BME280;13479;49.044;8.716;2022-10-30T18:26:39;99483.69;;;16.55;97.24
25610;BME280;13479;49.044;8.716;2022-10-30T18:29:05;99509.97;;;16.51;96.47
25610;BME280;13479;49.044;8.716;2022-10-30T18:31:30;99503.44;;;16.54;96.26
25610;BME280;13479;49.044;8.716;2022-10-30T18:33:55;99495.66;;;16.43;97.03
25610;BME280;13479;49.044;8.716;2022-10-30T18:36:23;99478.22;;;16.39;98.08
25610;BME280;13479;49.044;8.716;2022-10-30T18:38:49;99487.28;;;16.38;98.49
25610;BME280;13479;49.044;8.716;2022-10-30T18:41:16;99489.63;;;16.41;98.57
25610;BME280;13479;49.044;8.716;2022-10-30T18:43:42;99497.34;;;16.44;98.88
25610;BME280;13479;49.044;8.716;2022-10-30T18:46:09;99501.69;;;16.36;98.69
25610;BME280;13479;49.044;8.716;2022-10-30T18:48:35;99506.97;;;16.28;98.73
25610;BME280;13479;49.044;8.716;2022-10-30T18:51:01;99507.66;;;16.30;98.38
25610;BME280;13479;49.044;8.716;2022-10-30T18:53:27;99505.66;;;16.32;98.25
25610;BME280;13479;49.044;8.716;2022-10-30T18:55:52;99514.16;;;16.28;98.06
25610;BME280;13479;49.044;8.716;2022-10-30T18:58:17;99526.56;;;16.29;97.23
25610;BME280;13479;49.044;8.716;2022-10-30T19:00:43;99523.84;;;16.20;96.58
25610;BME280;13479;49.044;8.716;2022-10-30T19:03:09;99522.22;;;16.28;95.84
25610;BME280;13479;49.044;8.716;2022-10-30T19:05:41;99518.06;;;16.33;94.54
25610;BME280;13479;49.044;8.716;2022-10-30T19:08:07;99510.97;;;16.24;94.26
25610;BME280;13479;49.044;8.716;2022-10-30T19:10:35;99479.69;;;16.06;95.25
25610;BME280;13479;49.044;8.716;2022-10-30T19:15:31;99473.59;;;15.96;97.87
25610;BME280;13479;49.044;8.716;2022-10-30T19:17:57;99493.50;;;15.94;98.75
25610;BME280;13479;49.044;8.716;2022-10-30T19:20:22;99512.03;;;15.87;99.05
25610;BME280;13479;49.044;8.716;2022-10-30T19:22:47;99510.50;;;15.84;98.99
25610;BME280;13479;49.044;8.716;2022-10-30T19:25:27;99514.31;;;15.82;98.67
25610;BME280;13479;49.044;8.716;2022-10-30T19:27:53;99512.91;;;15.78;99.27
25610;BME280;13479;49.044;8.716;2022-10-30T19:30:20;99511.16;;;15.68;99.41
25610;BME280;13479;49.044;8.716;2022-10-30T19:32:46;99519.66;;;15.82;99.46
25610;BME280;13479;49.044;8.716;2022-10-30T19:35:12;99516.38;;;15.88;99.28
25610;BME280;13479;49.044;8.716;2022-10-30T19:37:38;99520.31;;;15.84;99.48
25610;BME280;13479;49.044;8.716;2022-10-30T19:40:24;99520.88;;;15.69;99.32
25610;BME280;13479;49.044;8.716;2022-10-30T19:42:50;99524.56;;;15.68;99.28
25610;BME280;13479;49.044;8.716;2022-10-30T19:45:17;99535.84;;;15.62;99.06
25610;BME280;13479;49.044;8.716;2022-10-30T19:47:43;99547.41;;;15.63;98.11